Time;durP1;ratioP1;P1;durP2;ratioP2;P2;SDS_P1;SDS_P2;PMS_P1;PMS_P2;Temp;Humidity;BMP_temperature;BMP_pressure;BME280_temperature;BME280_humidity;BME280_pressure;Samples;Min_cycle;Max_cycle;Signal;HPM_P1;HPM_P2
2023/01/15 00:00:28;;;;;;;1.73;0.60;;;;;;;8.22;100.00;94638.94;5092027;28;21161;-72
2023/01/15 00:02:55;;;;;;;0.50;0.30;;;;;;;8.26;100.00;94645.50;5096953;28;20786;-71
2023/01/15 00:05:23;;;;;;;2.10;0.50;;;;;;;8.21;100.00;94626.97;5103647;28;20765;-73
2023/01/15 00:07:51;;;;;;;1.13;0.60;;;;;;;8.30;100.00;94628.88;5101169;28;20839;-72
2023/01/15 00:10:17;;;;;;;0.50;0.30;;;;;;;8.36;100.00;94620.69;5099159;28;24925;-74
2023/01/15 00:12:44;;;;;;;0.52;0.30;;;;;;;8.36;100.00;94628.44;5094280;28;24466;-73
2023/01/15 00:15:10;;;;;;;0.93;0.50;;;;;;;8.37;100.00;94612.06;5104552;28;24441;-72
2023/01/15 00:17:37;;;;;;;0.50;0.38;;;;;;;8.44;100.00;94607.28;5105403;28;20778;-72
2023/01/15 00:20:04;;;;;;;0.50;0.30;;;;;;;8.50;100.00;94599.09;5102058;28;24822;-72
2023/01/15 00:22:32;;;;;;;0.20;0.10;;;;;;;8.55;100.00;94602.16;5101303;28;24434;-73
2023/01/15 00:27:44;;;;;;;0.38;0.20;;;;;;;8.52;100.00;94597.22;5096314;28;20680;-71
2023/01/15 00:30:14;;;;;;;0.45;0.45;;;;;;;8.55;100.00;94591.00;5103184;28;20817;-71
2023/01/15 00:32:42;;;;;;;0.68;0.40;;;;;;;8.50;100.00;94598.28;5099995;28;20741;-73
2023/01/15 00:35:12;;;;;;;0.63;0.43;;;;;;;8.56;100.00;94592.66;5087177;28;21334;-73
2023/01/15 00:37:40;;;;;;;0.52;0.40;;;;;;;8.58;100.00;94598.53;5103040;28;20721;-73
2023/01/15 00:40:08;;;;;;;1.90;0.60;;;;;;;8.66;100.00;94585.88;5097066;28;20766;-73
2023/01/15 00:42:34;;;;;;;0.82;0.52;;;;;;;8.69;100.00;94601.16;5101749;28;20825;-73
2023/01/15 00:45:08;;;;;;;4.18;1.40;;;;;;;8.72;100.00;94599.16;5101261;28;24437;-73
2023/01/15 00:47:35;;;;;;;1.50;0.85;;;;;;;8.72;100.00;94590.59;5098858;28;20669;-73
2023/01/15 00:50:01;;;;;;;2.58;1.50;;;;;;;8.79;100.00;94576.31;5093036;28;20781;-73
2023/01/15 00:52:28;;;;;;;2.58;1.77;;;;;;;8.71;100.00;94566.56;5102936;28;24513;-73
2023/01/15 00:54:56;;;;;;;4.80;2.60;;;;;;;8.66;100.00;94560.88;5099407;28;24433;-73
2023/01/15 00:57:22;;;;;;;3.08;2.00;;;;;;;8.66;100.00;94563.47;5101883;28;21423;-73
2023/01/15 00:59:49;;;;;;;2.22;0.98;;;;;;;8.77;100.00;94562.66;5089520;28;24438;-73
2023/01/15 01:02:15;;;;;;;4.90;2.97;;;;;;;8.71;100.00;94560.53;5104626;28;24445;-73
2023/01/15 01:04:41;;;;;;;10.73;2.27;;;;;;;8.81;100.00;94558.91;5100231;28;24474;-73
2023/01/15 01:07:08;;;;;;;6.30;3.63;;;;;;;8.79;100.00;94544.47;5092639;28;24440;-73
2023/01/15 01:09:35;;;;;;;3.95;1.65;;;;;;;8.90;100.00;94540.16;5081332;28;20769;-73
2023/01/15 01:12:03;;;;;;;1.77;1.33;;;;;;;8.87;100.00;94545.56;5104788;28;20849;-73
2023/01/15 01:14:29;;;;;;;6.22;3.50;;;;;;;8.89;100.00;94538.50;5098482;28;24995;-73
2023/01/15 01:16:56;;;;;;;1.20;1.00;;;;;;;8.79;100.00;94552.22;5100525;28;24438;-73
2023/01/15 01:19:24;;;;;;;1.50;0.60;;;;;;;8.73;100.00;94538.84;5097237;28;24443;-73
2023/01/15 01:21:51;;;;;;;2.65;1.70;;;;;;;8.70;100.00;94546.81;5102482;28;24780;-73
2023/01/15 01:24:20;;;;;;;1.30;0.40;;;;;;;8.79;100.00;94553.06;5087979;28;21163;-73
2023/01/15 01:26:48;;;;;;;1.63;0.93;;;;;;;8.78;100.00;94550.59;5098774;28;20770;-73
2023/01/15 01:29:18;;;;;;;1.10;0.30;;;;;;;8.79;100.00;94552.22;5094297;28;20769;-73
2023/01/15 01:31:45;;;;;;;1.15;0.50;;;;;;;8.79;100.00;94545.31;5092368;28;24433;-73
2023/01/15 01:34:13;;;;;;;0.40;0.30;;;;;;;8.81;100.00;94551.19;5097563;28;24812;-73
2023/01/15 01:36:41;;;;;;;0.20;0.17;;;;;;;8.84;100.00;94530.28;5089990;28;20785;-73
2023/01/15 01:39:12;;;;;;;0.30;0.27;;;;;;;8.87;100.00;94532.66;5096495;28;20858;-73
2023/01/15 01:41:39;;;;;;;0.30;0.15;;;;;;;8.80;100.00;94525.50;5091430;28;20769;-73
2023/01/15 01:44:08;;;;;;;0.23;0.20;;;;;;;8.83;100.00;94517.50;5087488;28;24430;-73
2023/01/15 01:46:36;;;;;;;0.63;0.20;;;;;;;8.81;100.00;94525.34;5093037;28;20835;-73
2023/01/15 01:49:09;;;;;;;0.40;0.20;;;;;;;8.80;100.00;94515.97;5095059;28;20810;-73
2023/01/15 01:51:39;;;;;;;0.25;0.10;;;;;;;8.69;100.00;94526.28;5090215;28;20708;-73
2023/01/15 01:54:09;;;;;;;0.25;0.13;;;;;;;8.64;100.00;94508.56;5077389;28;20772;-73
2023/01/15 01:56:37;;;;;;;0.20;0.10;;;;;;;8.74;100.00;94503.53;5092039;28;20774;-73
2023/01/15 01:59:06;;;;;;;0.30;0.00;;;;;;;8.65;100.00;94502.47;5096624;28;20779;-73
2023/01/15 02:01:33;;;;;;;0.40;0.20;;;;;;;8.58;100.00;94496.13;5083132;28;20870;-73
2023/01/15 02:04:01;;;;;;;0.30;0.10;;;;;;;8.56;100.00;94489.44;5089461;28;24437;-73
2023/01/15 02:06:29;;;;;;;0.20;0.10;;;;;;;8.73;100.00;94488.97;5094191;28;20760;-73
2023/01/15 02:08:56;;;;;;;0.60;0.13;;;;;;;8.75;100.00;94476.78;5095338;28;20774;-72
2023/01/15 02:11:23;;;;;;;0.10;0.10;;;;;;;8.85;100.00;94472.56;5089173;28;24517;-72
2023/01/15 02:13:58;;;;;;;0.30;0.10;;;;;;;8.80;100.00;94477.25;5100366;28;24458;-72
2023/01/15 02:16:28;;;;;;;0.70;0.30;;;;;;;8.76;100.00;94465.53;5093790;28;20801;-72
2023/01/15 02:19:00;;;;;;;0.30;0.10;;;;;;;8.68;100.00;94483.34;5097500;28;20765;-72
2023/01/15 02:21:46;;;;;;;1.10;0.40;;;;;;;8.81;100.00;94484.06;5097013;28;24449;-72
2023/01/15 02:24:20;;;;;;;0.40;0.30;;;;;;;8.94;100.00;94471.84;5091640;28;20730;-72
2023/01/15 02:27:14;;;;;;;0.80;0.40;;;;;;;8.77;100.00;94456.84;5099728;28;20709;-73
2023/01/15 02:29:56;;;;;;;0.50;0.40;;;;;;;8.90;100.00;94474.81;5095520;28;20653;-73
2023/01/15 02:32:31;;;;;;;0.60;0.40;;;;;;;8.83;100.00;94458.97;5081675;28;20762;-73
2023/01/15 02:35:07;;;;;;;1.00;0.20;;;;;;;8.88;100.00;94456.00;5099252;28;20742;-72
2023/01/15 02:37:39;;;;;;;0.70;0.43;;;;;;;8.91;100.00;94468.69;5093308;28;21100;-73
2023/01/15 02:40:07;;;;;;;0.47;0.20;;;;;;;8.92;100.00;94463.41;5096813;28;20710;-73
2023/01/15 02:42:36;;;;;;;0.38;0.20;;;;;;;8.95;100.00;94462.34;5081830;28;20945;-73
2023/01/15 02:45:05;;;;;;;0.90;0.10;;;;;;;8.94;100.00;94463.28;5100599;28;20766;-71
2023/01/15 02:47:36;;;;;;;0.20;0.10;;;;;;;8.91;100.00;94456.59;5093576;28;20769;-73
2023/01/15 02:50:07;;;;;;;0.70;0.10;;;;;;;8.91;100.00;94456.59;5101088;28;21142;-72
2023/01/15 02:52:39;;;;;;;0.38;0.10;;;;;;;9.07;100.00;94455.41;5086177;28;20696;-73
2023/01/15 02:55:09;;;;;;;0.10;0.00;;;;;;;8.90;100.00;94449.81;5098774;28;21056;-73
2023/01/15 02:57:39;;;;;;;0.20;0.10;;;;;;;8.85;100.00;94445.91;5090476;28;20716;-73
2023/01/15 03:00:10;;;;;;;0.20;0.10;;;;;;;8.84;100.00;94442.53;5096831;28;20727;-73
2023/01/15 03:02:45;;;;;;;0.40;0.10;;;;;;;8.82;100.00;94449.53;5083033;28;20719;-73
2023/01/15 03:05:18;;;;;;;1.60;0.13;;;;;;;8.80;100.00;94448.03;5095270;28;20716;-73
2023/01/15 03:07:48;;;;;;;0.00;0.00;;;;;;;8.86;100.00;94440.66;5090301;28;20765;-73
2023/01/15 03:10:15;;;;;;;1.20;0.22;;;;;;;8.82;100.00;94438.41;5098699;28;20730;-73
2023/01/15 03:13:06;;;;;;;0.30;0.10;;;;;;;8.79;100.00;94434.31;5083666;28;21136;-72
2023/01/15 03:18:27;;;;;;;0.20;0.10;;;;;;;8.81;100.00;94424.69;5085447;28;21212;-73
2023/01/15 03:20:59;;;;;;;0.30;0.20;;;;;;;8.80;100.00;94429.97;5087396;28;21196;-72
2023/01/15 03:23:27;;;;;;;0.93;0.20;;;;;;;8.93;100.00;94425.47;5088216;28;20751;-73
2023/01/15 03:25:53;;;;;;;0.30;0.10;;;;;;;8.91;100.00;94423.03;5096771;28;20888;-72
2023/01/15 03:28:26;;;;;;;0.20;0.10;;;;;;;8.95;100.00;94424.44;5101300;28;20770;-73
2023/01/15 03:30:52;;;;;;;0.80;0.20;;;;;;;8.97;100.00;94416.56;5090311;28;20693;-73
2023/01/15 03:33:19;;;;;;;0.45;0.22;;;;;;;8.96;100.00;94410.56;5101705;28;20792;-73
2023/01/15 03:35:48;;;;;;;0.43;0.30;;;;;;;8.93;100.00;94410.81;5092485;28;20773;-73
2023/01/15 03:38:19;;;;;;;0.90;0.10;;;;;;;9.03;100.00;94415.28;5101404;28;20765;-73
2023/01/15 03:40:53;;;;;;;0.20;0.10;;;;;;;8.88;100.00;94417.28;5088975;28;20813;-73
2023/01/15 03:43:40;;;;;;;0.10;0.00;;;;;;;8.95;100.00;94414.09;5101796;28;20688;-73
2023/01/15 03:46:13;;;;;;;0.40;0.20;;;;;;;8.95;100.00;94411.53;5082929;28;20806;-73
2023/01/15 03:48:46;;;;;;;0.55;0.28;;;;;;;8.89;100.00;94412.00;5092187;28;20688;-72
2023/01/15 03:51:20;;;;;;;2.20;0.30;;;;;;;8.76;100.00;94402.75;5079321;28;20808;-73
2023/01/15 03:53:50;;;;;;;0.40;0.20;;;;;;;8.79;100.00;94408.50;5096618;28;24458;-72
2023/01/15 03:56:22;;;;;;;0.47;0.20;;;;;;;8.73;100.00;94411.53;5101372;28;20722;-72
2023/01/15 03:58:55;;;;;;;2.75;0.22;;;;;;;8.79;100.00;94405.06;5100152;28;20762;-73
2023/01/15 04:01:28;;;;;;;0.20;0.10;;;;;;;8.80;100.00;94411.91;5084477;28;20689;-73
2023/01/15 04:03:56;;;;;;;0.20;0.10;;;;;;;8.85;100.00;94391.69;5090628;28;24883;-73
2023/01/15 04:06:25;;;;;;;0.10;0.10;;;;;;;8.88;100.00;94392.28;5090214;28;24947;-73
2023/01/15 04:08:52;;;;;;;0.22;0.10;;;;;;;8.82;100.00;94395.34;5096950;28;20843;-73
2023/01/15 04:11:23;;;;;;;0.10;0.10;;;;;;;8.95;100.00;94393.44;5088189;28;24988;-72
2023/01/15 04:13:51;;;;;;;0.00;0.00;;;;;;;8.91;100.00;94376.56;5095028;28;20887;-73
2023/01/15 04:16:23;;;;;;;0.30;0.10;;;;;;;8.87;100.00;94372.56;5100765;28;24437;-73
2023/01/15 04:18:50;;;;;;;0.35;0.17;;;;;;;8.99;100.00;94369.97;5098826;28;21341;-73
2023/01/15 04:21:16;;;;;;;0.40;0.10;;;;;;;8.98;100.00;94389.00;5089476;28;24441;-75
2023/01/15 04:23:43;;;;;;;0.60;0.07;;;;;;;8.95;100.00;94390.88;5097247;28;20817;-72
2023/01/15 04:26:10;;;;;;;0.13;0.10;;;;;;;8.94;100.00;94398.75;5087494;28;24438;-72
2023/01/15 04:28:36;;;;;;;0.00;0.00;;;;;;;8.90;100.00;94402.50;5098387;28;20773;-73
2023/01/15 04:31:04;;;;;;;0.00;0.00;;;;;;;8.88;100.00;94396.63;5093785;28;20783;-73
2023/01/15 04:33:31;;;;;;;0.10;0.10;;;;;;;8.80;100.00;94396.41;5084753;28;20837;-73
2023/01/15 04:35:59;;;;;;;0.30;0.20;;;;;;;8.82;100.00;94405.66;5091933;28;24795;-72
2023/01/15 04:38:25;;;;;;;0.00;0.00;;;;;;;8.89;100.00;94403.44;5098301;28;20816;-73
2023/01/15 04:46:22;;;;;;;1.20;0.10;;;;;;;8.81;100.00;94427.25;5079003;28;20850;-73
2023/01/15 04:48:48;;;;;;;0.20;0.10;;;;;;;8.73;100.00;94409.78;5101047;28;20778;-73
2023/01/15 04:51:15;;;;;;;0.40;0.20;;;;;;;8.73;100.00;94407.19;5100211;28;24981;-73
2023/01/15 04:53:42;;;;;;;1.40;0.73;;;;;;;8.83;100.00;94416.84;5083888;28;24466;-73
2023/01/15 04:56:08;;;;;;;3.40;1.13;;;;;;;8.80;100.00;94411.91;5083548;28;24495;-73
2023/01/15 04:58:37;;;;;;;2.97;2.23;;;;;;;8.78;100.00;94409.41;5099884;28;20810;-73
2023/01/15 05:01:05;;;;;;;3.30;1.50;;;;;;;8.78;100.00;94434.41;5095721;28;21131;-73
2023/01/15 05:03:33;;;;;;;3.13;1.75;;;;;;;8.74;100.00;94446.72;5091991;28;20871;-73
2023/01/15 05:06:01;;;;;;;2.17;0.93;;;;;;;8.68;100.00;94460.13;5099568;28;20802;-73
2023/01/15 05:08:28;;;;;;;0.40;0.10;;;;;;;8.63;100.00;94490.59;5093879;28;24491;-73
2023/01/15 05:10:54;;;;;;;0.85;0.13;;;;;;;8.42;100.00;94487.91;5101377;28;20771;-72
2023/01/15 05:13:21;;;;;;;0.00;0.00;;;;;;;7.96;100.00;94474.00;5094579;28;24468;-72
2023/01/15 05:15:47;;;;;;;0.30;0.00;;;;;;;7.68;100.00;94488.09;5100985;28;20780;-72
2023/01/15 05:18:14;;;;;;;0.20;0.00;;;;;;;7.21;100.00;94512.88;5096184;28;20770;-72
2023/01/15 05:20:42;;;;;;;1.30;0.00;;;;;;;6.66;100.00;94513.25;5099373;28;24445;-71
2023/01/15 05:23:08;;;;;;;0.00;0.00;;;;;;;6.38;100.00;94527.97;5096190;28;24435;-71
2023/01/15 05:25:36;;;;;;;0.05;0.00;;;;;;;6.20;100.00;94536.91;5097355;28;24437;-71
2023/01/15 05:28:02;;;;;;;0.20;0.00;;;;;;;6.05;100.00;94526.69;5097886;28;24438;-73
2023/01/15 05:30:29;;;;;;;0.00;0.00;;;;;;;6.02;100.00;94537.16;5095719;28;24503;-72
2023/01/15 05:32:55;;;;;;;0.30;0.00;;;;;;;5.92;100.00;94533.53;5099177;28;24800;-72
2023/01/15 05:35:22;;;;;;;0.00;0.00;;;;;;;5.85;100.00;94545.09;5096549;28;24556;-72
2023/01/15 05:37:50;;;;;;;0.00;0.00;;;;;;;5.78;100.00;94525.84;5095394;28;24442;-73
2023/01/15 05:40:17;;;;;;;0.00;0.00;;;;;;;5.73;100.00;94541.56;5093389;28;24433;-73
2023/01/15 05:42:43;;;;;;;0.10;0.00;;;;;;;5.69;100.00;94537.53;5097691;28;24433;-71
2023/01/15 05:45:10;;;;;;;0.00;0.00;;;;;;;5.69;100.00;94547.00;5098747;28;24990;-72
2023/01/15 05:47:36;;;;;;;0.10;0.10;;;;;;;5.74;100.00;94540.63;5096414;28;24441;-73
2023/01/15 05:50:03;;;;;;;0.00;0.00;;;;;;;5.68;100.00;94535.06;5093786;28;24434;-72
2023/01/15 05:52:30;;;;;;;0.20;0.10;;;;;;;5.59;100.00;94542.41;5099576;28;24437;-72
2023/01/15 05:54:57;;;;;;;0.00;0.00;;;;;;;5.59;100.00;94547.56;5088678;28;24453;-72
2023/01/15 05:57:24;;;;;;;0.15;0.00;;;;;;;5.55;100.00;94537.56;5100876;28;24429;-72
2023/01/15 05:59:52;;;;;;;0.00;0.00;;;;;;;5.51;100.00;94536.13;5088345;28;24805;-73
2023/01/15 06:02:18;;;;;;;0.00;0.00;;;;;;;5.54;100.00;94541.06;5097067;27;24536;-73
2023/01/15 06:04:45;;;;;;;0.00;0.00;;;;;;;5.56;100.00;94546.91;5085851;28;24437;-73
2023/01/15 06:07:11;;;;;;;0.00;0.00;;;;;;;5.50;100.00;94548.13;5082581;28;24442;-72
2023/01/15 06:09:38;;;;;;;0.10;0.00;;;;;;;5.48;100.00;94544.84;5079447;28;24434;-73
2023/01/15 06:12:06;;;;;;;0.00;0.00;;;;;;;5.44;100.00;94557.97;5076642;28;24436;-72
2023/01/15 06:14:32;;;;;;;0.00;0.00;;;;;;;5.42;100.00;94570.09;5089360;28;24449;-72
2023/01/15 06:16:59;;;;;;;0.00;0.00;;;;;;;5.39;100.00;94567.72;5087617;28;24430;-73
2023/01/15 06:19:25;;;;;;;0.00;0.00;;;;;;;5.37;100.00;94565.22;5084804;28;24968;-73
2023/01/15 06:21:52;;;;;;;0.60;0.10;;;;;;;5.27;100.00;94572.69;5086811;28;24451;-73
2023/01/15 06:24:19;;;;;;;0.30;0.10;;;;;;;5.25;100.00;94582.19;5101748;28;24468;-71
2023/01/15 06:26:46;;;;;;;0.10;0.05;;;;;;;5.21;100.00;94591.00;5079303;28;25007;-73
2023/01/15 06:29:17;;;;;;;0.00;0.00;;;;;;;5.21;100.00;94615.84;5082321;28;24434;-72
2023/01/15 06:31:43;;;;;;;0.00;0.00;;;;;;;5.22;100.00;94612.38;5093385;28;24503;-72
2023/01/15 06:34:10;;;;;;;0.00;0.00;;;;;;;5.16;100.00;94598.16;5092288;28;24453;-72
2023/01/15 06:36:36;;;;;;;0.00;0.00;;;;;;;5.15;100.00;94604.19;5099108;28;24450;-72
2023/01/15 06:39:03;;;;;;;0.00;0.00;;;;;;;5.12;100.00;94621.53;5095809;28;24519;-72
2023/01/15 06:47:21;;;;;;;0.10;0.10;;;;;;;5.08;100.00;94628.59;5094509;28;24474;-72
2023/01/15 06:49:49;;;;;;;0.10;0.10;;;;;;;4.99;100.00;94626.56;5092554;28;24450;-72
2023/01/15 06:52:15;;;;;;;0.10;0.00;;;;;;;4.90;100.00;94635.66;5087285;28;24434;-72
2023/01/15 06:54:41;;;;;;;0.00;0.00;;;;;;;4.88;100.00;94642.59;5086294;28;24559;-72
2023/01/15 06:57:08;;;;;;;0.00;0.00;;;;;;;4.88;100.00;94660.56;5086849;28;24536;-72
2023/01/15 06:59:36;;;;;;;0.00;0.00;;;;;;;4.80;100.00;94666.13;5078114;28;24434;-72
2023/01/15 07:02:02;;;;;;;0.00;0.00;;;;;;;4.75;100.00;94675.03;5093410;28;24477;-72
2023/01/15 07:04:29;;;;;;;0.00;0.00;;;;;;;4.74;100.00;94665.66;5098066;28;24438;-72
2023/01/15 07:06:56;;;;;;;0.00;0.00;;;;;;;4.65;100.00;94667.00;5102114;28;24434;-73
2023/01/15 07:09:22;;;;;;;0.00;0.00;;;;;;;4.68;100.00;94668.59;5098058;28;24449;-72
2023/01/15 07:11:49;;;;;;;0.00;0.00;;;;;;;4.55;100.00;94655.63;5090159;28;24434;-73
2023/01/15 07:14:17;;;;;;;0.00;0.00;;;;;;;4.51;100.00;94667.78;5092908;28;24435;-72
2023/01/15 07:16:45;;;;;;;0.00;0.00;;;;;;;4.45;100.00;94680.13;5089928;28;24430;-72
2023/01/15 07:19:12;;;;;;;0.00;0.00;;;;;;;4.38;100.00;94695.03;5100110;28;24437;-72
2023/01/15 07:21:38;;;;;;;0.20;0.05;;;;;;;4.39;100.00;94683.06;5099685;28;24433;-72
2023/01/15 07:24:06;;;;;;;0.15;0.15;;;;;;;4.37;100.00;94690.81;5096538;28;24421;-72
2023/01/15 07:26:32;;;;;;;2.13;1.52;;;;;;;4.27;100.00;94693.06;5095325;28;24992;-72
2023/01/15 07:28:59;;;;;;;0.35;0.20;;;;;;;4.25;100.00;94694.88;5074905;28;24431;-72
2023/01/15 07:31:25;;;;;;;0.40;0.30;;;;;;;4.22;100.00;94689.09;5082102;28;24453;-72
2023/01/15 07:33:55;;;;;;;0.30;0.10;;;;;;;4.09;100.00;94683.84;5089636;28;24445;-72
2023/01/15 07:36:21;;;;;;;0.00;0.00;;;;;;;4.12;100.00;94679.38;5084006;28;24450;-72
2023/01/15 07:38:47;;;;;;;0.00;0.00;;;;;;;4.03;100.00;94691.84;5082566;28;24442;-72
2023/01/15 07:49:47;;;;;;;0.10;0.10;;;;;;;3.95;100.00;94725.56;5085030;28;25029;-73
2023/01/15 07:52:15;;;;;;;0.10;0.00;;;;;;;3.98;100.00;94739.94;5093594;28;24445;-72
2023/01/15 07:54:42;;;;;;;0.25;0.17;;;;;;;4.04;100.00;94737.03;5084965;28;24450;-71
2023/01/15 07:57:09;;;;;;;0.20;0.10;;;;;;;3.99;100.00;94734.75;5092725;28;24537;-72
2023/01/15 07:59:35;;;;;;;0.30;0.10;;;;;;;3.97;100.00;94743.41;5095355;28;24839;-76
2023/01/15 08:02:02;;;;;;;0.98;0.55;;;;;;;3.99;100.00;94742.41;5095143;28;24446;-72
2023/01/15 08:04:30;;;;;;;0.55;0.30;;;;;;;3.96;100.00;94742.56;5072058;28;24446;-72
2023/01/15 08:06:59;;;;;;;0.10;0.03;;;;;;;3.96;100.00;94757.13;5091274;28;24979;-72
2023/01/15 08:09:25;;;;;;;0.40;0.28;;;;;;;3.91;100.00;94764.25;5103600;28;24436;-72
2023/01/15 08:17:20;;;;;;;0.30;0.20;;;;;;;3.83;100.00;94744.16;5094415;28;24553;-72
2023/01/15 08:19:48;;;;;;;0.77;0.28;;;;;;;3.88;100.00;94755.78;5088884;28;24434;-72
2023/01/15 08:22:14;;;;;;;0.10;0.03;;;;;;;3.96;100.00;94757.94;5104272;28;24445;-73
2023/01/15 08:24:41;;;;;;;0.20;0.20;;;;;;;3.92;100.00;94776.94;5105371;28;24433;-73
2023/01/15 08:27:07;;;;;;;0.90;0.60;;;;;;;3.91;100.00;94789.84;5087611;28;24434;-73
2023/01/15 08:29:34;;;;;;;2.47;1.75;;;;;;;3.87;100.00;94778.94;5091461;28;25140;-73
2023/01/15 08:32:00;;;;;;;0.30;0.20;;;;;;;3.89;100.00;94784.78;5087063;28;24445;-72
2023/01/15 08:34:27;;;;;;;0.50;0.10;;;;;;;3.90;100.00;94789.03;5085825;28;24880;-73
2023/01/15 08:36:58;;;;;;;0.10;0.10;;;;;;;3.96;100.00;94801.50;5080106;28;24457;-72
2023/01/15 08:39:25;;;;;;;1.80;0.50;;;;;;;3.94;100.00;94798.22;5072849;28;24517;-73
2023/01/15 08:41:52;;;;;;;0.90;0.20;;;;;;;3.94;100.00;94805.91;5078138;28;24950;-72
2023/01/15 08:44:20;;;;;;;0.20;0.20;;;;;;;3.87;100.00;94810.50;5093132;28;24437;-73
2023/01/15 08:46:47;;;;;;;0.30;0.10;;;;;;;3.90;100.00;94809.53;5092797;28;24496;-71
2023/01/15 08:49:13;;;;;;;0.25;0.20;;;;;;;3.88;100.00;94817.28;5095989;28;24986;-71
2023/01/15 08:51:40;;;;;;;1.58;0.40;;;;;;;3.89;100.00;94825.78;5071718;28;24840;-71
2023/01/15 08:54:07;;;;;;;0.30;0.20;;;;;;;3.88;100.00;94829.25;5090937;28;24441;-71
2023/01/15 08:56:34;;;;;;;0.90;0.30;;;;;;;3.83;100.00;94821.81;5080793;28;24525;-72
2023/01/15 08:59:04;;;;;;;0.90;0.52;;;;;;;3.83;100.00;94832.06;5092408;28;24438;-71
2023/01/15 09:01:31;;;;;;;1.02;0.90;;;;;;;3.93;100.00;94844.38;5102015;28;24482;-71
2023/01/15 09:03:58;;;;;;;0.17;0.15;;;;;;;3.90;100.00;94842.81;5094097;28;24687;-71
2023/01/15 09:06:25;;;;;;;0.32;0.20;;;;;;;3.84;100.00;94840.56;5094320;28;24429;-72
2023/01/15 09:08:51;;;;;;;0.82;0.60;;;;;;;3.85;100.00;94835.34;5087916;28;24515;-72
2023/01/15 09:11:19;;;;;;;0.55;0.40;;;;;;;3.85;100.00;94855.03;5097188;28;24983;-73
2023/01/15 09:13:47;;;;;;;0.88;0.73;;;;;;;3.79;100.00;94851.06;5097311;28;24446;-72
2023/01/15 09:16:16;;;;;;;1.00;0.80;;;;;;;3.72;100.00;94861.69;5092473;28;24541;-72
2023/01/15 09:18:42;;;;;;;0.90;0.60;;;;;;;3.71;100.00;94877.94;5096242;28;24445;-72
2023/01/15 09:21:09;;;;;;;0.65;0.45;;;;;;;3.71;100.00;94889.03;5083947;28;24429;-71
2023/01/15 09:23:35;;;;;;;0.93;0.60;;;;;;;3.66;100.00;94896.09;5098770;28;24441;-71
2023/01/15 09:26:05;;;;;;;0.93;0.82;;;;;;;3.70;100.00;94902.72;5096211;28;24434;-71
2023/01/15 09:28:33;;;;;;;1.95;1.15;;;;;;;3.70;100.00;94912.13;5098564;28;24433;-71
2023/01/15 09:31:00;;;;;;;0.57;0.30;;;;;;;3.54;100.00;94901.84;5100488;28;24835;-71
2023/01/15 09:33:27;;;;;;;0.47;0.35;;;;;;;3.44;100.00;94892.94;5099857;28;24449;-71
2023/01/15 09:35:54;;;;;;;0.30;0.20;;;;;;;3.32;100.00;94897.75;5090661;28;24446;-73
2023/01/15 09:38:21;;;;;;;1.00;0.30;;;;;;;3.36;100.00;94894.13;5099986;28;24430;-73
2023/01/15 09:40:51;;;;;;;0.73;0.40;;;;;;;3.33;100.00;94896.84;5100073;28;24441;-73
2023/01/15 09:43:44;;;;;;;0.50;0.32;;;;;;;3.33;100.00;94901.97;5104200;28;24446;-73
2023/01/15 09:46:16;;;;;;;0.35;0.30;;;;;;;3.31;100.00;94924.25;5102114;28;25051;-72
2023/01/15 09:48:52;;;;;;;0.70;0.40;;;;;;;3.31;100.00;94924.25;5091298;27;24445;-72
2023/01/15 09:51:26;;;;;;;1.60;0.40;;;;;;;3.38;100.00;94917.13;5075232;28;24451;-72
2023/01/15 09:54:14;;;;;;;2.17;0.60;;;;;;;3.42;100.00;94928.88;5086954;28;24553;-72
2023/01/15 09:56:40;;;;;;;1.08;0.60;;;;;;;3.37;100.00;94946.16;5093279;28;24803;-72
2023/01/15 09:59:20;;;;;;;1.65;0.95;;;;;;;3.25;100.00;94939.91;5084096;28;24438;-72
2023/01/15 10:01:49;;;;;;;0.30;0.30;;;;;;;3.19;100.00;94931.66;5088964;28;24451;-72
2023/01/15 10:04:25;;;;;;;1.08;0.70;;;;;;;3.18;100.00;94935.97;5098266;28;24438;-72
2023/01/15 10:07:00;;;;;;;1.20;0.50;;;;;;;3.14;100.00;94942.97;5094722;28;24440;-72
2023/01/15 10:09:36;;;;;;;1.25;0.68;;;;;;;3.18;100.00;94942.81;5075168;28;25000;-73
2023/01/15 10:15:06;;;;;;;0.95;0.55;;;;;;;3.22;100.00;94957.94;5073680;28;24895;-72
2023/01/15 10:17:40;;;;;;;1.02;0.77;;;;;;;3.17;100.00;94971.88;5091680;28;24542;-73
2023/01/15 10:20:14;;;;;;;3.72;2.28;;;;;;;3.15;100.00;94975.34;5079663;28;24803;-73
2023/01/15 10:22:56;;;;;;;1.95;1.30;;;;;;;3.24;100.00;94986.88;5073118;28;25000;-73
2023/01/15 10:25:27;;;;;;;4.32;2.33;;;;;;;3.24;100.00;94974.06;5087025;28;24450;-73
2023/01/15 10:27:56;;;;;;;1.55;0.85;;;;;;;3.17;100.00;94977.00;5085397;28;24442;-72
2023/01/15 10:30:32;;;;;;;1.70;0.82;;;;;;;3.24;100.00;94975.81;5078701;28;24445;-73
2023/01/15 10:33:14;;;;;;;1.38;1.15;;;;;;;3.21;100.00;94973.38;5095363;28;24438;-73
2023/01/15 10:35:48;;;;;;;2.03;1.40;;;;;;;3.15;100.00;94975.34;5089383;28;24532;-73
2023/01/15 10:38:23;;;;;;;0.30;0.30;;;;;;;2.97;100.00;94986.41;5087958;28;24951;-73
2023/01/15 10:41:21;;;;;;;2.88;1.92;;;;;;;3.02;100.00;94983.63;5075308;28;24838;-73
2023/01/15 10:43:53;;;;;;;2.40;1.60;;;;;;;2.90;100.00;94985.03;5093252;28;24446;-73
2023/01/15 10:46:25;;;;;;;0.45;0.40;;;;;;;2.74;100.00;95007.88;5083873;28;24439;-72
2023/01/15 10:48:56;;;;;;;0.50;0.30;;;;;;;2.49;100.00;95023.50;5088925;28;25041;-72
2023/01/15 10:51:24;;;;;;;0.73;0.30;;;;;;;2.41;100.00;95020.41;5084665;28;24536;-73
2023/01/15 10:53:55;;;;;;;0.30;0.10;;;;;;;1.97;100.00;95000.16;5093815;28;24442;-73
2023/01/15 10:56:31;;;;;;;0.30;0.20;;;;;;;1.89;100.00;95009.81;5099584;28;24780;-73
2023/01/15 10:59:07;;;;;;;0.70;0.45;;;;;;;1.89;100.00;95018.34;5081813;28;24793;-73
2023/01/15 11:01:35;;;;;;;1.77;1.15;;;;;;;1.77;100.00;95023.91;5088688;28;24434;-73
2023/01/15 11:04:01;;;;;;;2.00;0.50;;;;;;;1.73;100.00;95032.59;5097262;28;24953;-73
2023/01/15 11:06:31;;;;;;;0.77;0.68;;;;;;;1.67;100.00;95027.75;5101398;28;24433;-73
2023/01/15 11:08:58;;;;;;;0.40;0.40;;;;;;;1.57;100.00;95041.75;5086331;28;24434;-73
2023/01/15 11:19:44;;;;;;;3.60;1.30;;;;;;;1.51;100.00;95053.03;5088393;28;24436;-73
2023/01/15 11:22:13;;;;;;;2.78;2.03;;;;;;;1.54;100.00;95063.13;5085205;28;24434;-73
2023/01/15 11:24:47;;;;;;;1.40;1.00;;;;;;;1.40;100.00;95053.44;5093951;28;24440;-73
2023/01/15 11:27:17;;;;;;;0.40;0.22;;;;;;;1.43;100.00;95063.53;5092849;28;25022;-73
2023/01/15 11:29:45;;;;;;;1.20;0.65;;;;;;;1.54;100.00;95070.78;5084121;28;25022;-73
2023/01/15 11:32:28;;;;;;;1.25;0.90;;;;;;;1.60;100.00;95075.66;5083417;28;24529;-72
2023/01/15 11:34:55;;;;;;;0.73;0.43;;;;;;;1.69;100.00;95067.63;5085902;28;24484;-73
2023/01/15 11:37:22;;;;;;;0.87;0.60;;;;;;;1.65;100.00;95063.53;5090236;28;24467;-73
2023/01/15 11:39:52;;;;;;;1.17;0.60;;;;;;;1.62;100.00;95070.47;5091391;28;24476;-73
2023/01/15 11:50:51;;;;;;;0.80;0.40;;;;;;;1.61;100.00;95071.38;5089382;28;24468;-73
2023/01/15 11:53:22;;;;;;;0.70;0.50;;;;;;;1.62;100.00;95071.31;5092855;28;24446;-73
2023/01/15 11:55:54;;;;;;;1.45;0.82;;;;;;;1.65;100.00;95071.19;5103881;28;24458;-73
2023/01/15 11:58:23;;;;;;;1.08;0.47;;;;;;;1.69;100.00;95077.84;5093893;28;24438;-73
2023/01/15 12:00:53;;;;;;;0.60;0.50;;;;;;;1.68;100.00;95062.59;5091055;28;24444;-73
2023/01/15 12:03:23;;;;;;;2.17;1.80;;;;;;;1.72;100.00;95058.19;5089503;28;24468;-71
2023/01/15 12:05:56;;;;;;;5.35;3.67;;;;;;;1.79;100.00;95050.22;5085573;28;24971;-72
2023/01/15 12:08:43;;;;;;;1.00;0.77;;;;;;;1.80;100.00;95071.47;5079633;28;24441;-74
2023/01/15 12:11:22;;;;;;;1.27;0.88;;;;;;;1.75;100.00;95069.13;5077896;28;24449;-73
2023/01/15 12:13:58;;;;;;;2.42;1.17;;;;;;;1.70;100.00;95076.09;5075290;28;24803;-73
2023/01/15 12:16:33;;;;;;;4.00;2.50;;;;;;;1.83;100.00;95068.81;5072003;28;24987;-72
2023/01/15 12:19:09;;;;;;;7.53;0.65;;;;;;;1.84;100.00;95062.81;5076885;28;24633;-73
2023/01/15 12:21:53;;;;;;;3.55;1.73;;;;;;;1.88;100.00;95049.84;5076568;28;24431;-73
2023/01/15 12:24:37;;;;;;;15.35;1.90;;;;;;;1.92;100.00;95035.22;5075820;28;24443;-73
2023/01/15 12:27:20;;;;;;;6.07;3.78;;;;;;;1.88;100.00;95039.63;5084414;28;24431;-73
2023/01/15 12:29:54;;;;;;;1.73;1.07;;;;;;;1.92;100.00;95033.50;5082066;28;24521;-73
2023/01/15 12:32:24;;;;;;;9.27;4.05;;;;;;;1.94;100.00;95041.94;5082136;28;24439;-74
2023/01/15 12:34:57;;;;;;;2.30;1.40;;;;;;;2.05;100.00;95031.31;5082935;28;24446;-73